Time;durP1;ratioP1;P1;durP2;ratioP2;P2;SDS_P1;SDS_P2;PMS_P1;PMS_P2;Temp;Humidity;BMP_temperature;BMP_pressure;BME280_temperature;BME280_humidity;BME280_pressure;Samples;Min_cycle;Max_cycle;Signal;HPM_P1;HPM_P2
2023/09/01 00:00:07;;;;;;;2.95;2.85;;;18.90;99.90;;;19.26;83.04;101002.41;5039354;28;20048;-68
2023/09/01 00:02:35;;;;;;;3.08;2.97;;;18.90;99.90;;;19.31;82.67;101003.13;5048633;28;20444;-68
2023/09/01 00:05:12;;;;;;;2.78;2.67;;;19.00;99.90;;;19.37;82.09;101008.31;5037300;28;20119;-68
2023/09/01 00:07:40;;;;;;;3.40;3.30;;;19.00;99.90;;;19.37;81.86;101002.94;5041695;28;20034;-68
2023/09/01 00:10:10;;;;;;;2.80;2.70;;;19.10;99.90;;;19.36;81.70;100997.59;5045759;28;20540;-68
2023/09/01 00:12:38;;;;;;;3.15;3.05;;;19.10;99.90;;;19.29;81.92;100990.72;5035147;28;20107;-68
2023/09/01 00:15:08;;;;;;;2.97;2.88;;;19.00;99.90;;;19.23;81.88;100993.63;5045276;28;20045;-68
2023/09/01 00:17:36;;;;;;;2.83;2.72;;;18.90;99.90;;;19.05;81.44;100965.69;5041741;28;20052;-68
2023/09/01 00:20:06;;;;;;;2.80;2.70;;;18.90;99.90;;;19.22;81.06;100999.94;5035380;28;20041;-67
2023/09/01 00:22:36;;;;;;;3.08;2.97;;;18.90;99.90;;;19.22;80.59;100994.56;5049485;28;20045;-67
2023/09/01 00:25:06;;;;;;;3.45;3.25;;;18.90;99.90;;;19.21;80.53;100995.47;5042284;28;20097;-68
2023/09/01 00:27:34;;;;;;;2.90;2.80;;;18.90;99.90;;;19.23;80.60;101012.41;5042073;28;20065;-67
2023/09/01 00:30:03;;;;;;;2.80;2.70;;;18.90;99.90;;;19.22;80.16;101013.34;5050438;28;20076;-68
2023/09/01 00:32:31;;;;;;;2.70;2.60;;;18.90;99.90;;;19.28;80.15;101005.06;5038331;28;20049;-67
2023/09/01 00:35:01;;;;;;;2.97;2.88;;;18.90;99.90;;;19.15;80.82;101009.13;5045653;28;20061;-67
2023/09/01 00:37:31;;;;;;;2.88;2.78;;;18.70;99.90;;;19.19;81.00;101021.47;5046688;28;20402;-69
2023/09/01 00:40:01;;;;;;;2.80;2.70;;;18.80;99.90;;;19.14;80.98;101004.69;5038473;28;20088;-67
2023/09/01 00:42:29;;;;;;;3.08;2.97;;;18.80;99.90;;;19.20;80.76;101007.16;5034855;28;20073;-68
2023/09/01 00:44:57;;;;;;;3.53;3.42;;;18.80;99.90;;;19.22;80.66;101008.81;5034149;28;20048;-69
2023/09/01 00:47:26;;;;;;;2.80;2.70;;;18.80;99.90;;;19.24;80.56;101004.28;5034443;28;20108;-68
2023/09/01 00:49:54;;;;;;;3.10;3.00;;;18.80;99.90;;;19.24;80.55;101003.44;5033199;28;20061;-68
2023/09/01 00:52:23;;;;;;;2.83;2.72;;;18.80;99.90;;;19.26;80.63;101006.94;5034565;28;20042;-67
2023/09/01 00:54:51;;;;;;;2.65;2.55;;;18.90;99.90;;;19.30;80.51;101005.88;5033509;28;20049;-68
2023/09/01 00:57:21;;;;;;;2.80;2.70;;;18.90;99.90;;;19.35;80.12;100996.75;5034546;28;20060;-68
2023/09/01 00:59:49;;;;;;;2.65;2.55;;;18.90;99.90;;;19.34;79.88;100986.06;5047414;28;20120;-68
2023/09/01 01:02:18;;;;;;;2.95;2.85;;;18.90;99.90;;;19.40;80.49;101002.81;5034538;28;20038;-68
2023/09/01 01:04:46;;;;;;;2.97;2.88;;;19.00;99.90;;;19.36;80.31;101000.28;5034872;28;20050;-68
2023/09/01 01:07:24;;;;;;;3.15;3.05;;;19.00;99.90;;;19.33;79.87;101001.31;5034332;28;20049;-67
2023/09/01 01:10:02;;;;;;;2.80;2.70;;;19.00;99.90;;;19.32;79.67;101001.31;5033446;28;20087;-67
2023/09/01 01:12:41;;;;;;;2.95;2.85;;;19.00;99.90;;;19.41;79.47;101001.00;5034779;28;20049;-67
2023/09/01 01:15:11;;;;;;;3.03;2.92;;;19.00;99.90;;;19.48;79.60;101007.88;5033614;28;20498;-67
2023/09/01 01:17:40;;;;;;;;;;;19.10;99.90;;;19.36;79.58;100973.47;5035407;28;20049;-68
2023/09/01 01:20:27;;;;;;;2.95;2.85;;;19.10;99.90;;;19.52;79.41;101013.09;5034410;28;19921;-67
2023/09/01 01:23:10;;;;;;;2.70;2.60;;;19.10;99.90;;;19.44;79.37;101006.25;5046994;28;20072;-68
2023/09/01 01:25:46;;;;;;;2.50;2.40;;;19.10;99.90;;;19.44;79.68;101014.28;5038317;28;20490;-67
2023/09/01 01:28:15;;;;;;;2.78;2.67;;;19.00;99.90;;;19.35;80.66;100995.88;5046444;28;20049;-68
2023/09/01 01:30:46;;;;;;;2.83;2.72;;;19.00;99.90;;;19.37;81.19;100994.00;5046644;28;20055;-67
2023/09/01 01:33:36;;;;;;;;;;;18.90;99.90;;;19.37;81.30;101000.25;5037888;28;20494;-67
2023/09/01 01:36:19;;;;;;;3.30;3.20;;;18.90;99.90;;;19.31;81.53;100999.56;5045084;28;19929;-68
2023/09/01 01:38:54;;;;;;;3.35;3.25;;;18.90;99.90;;;19.35;81.26;100998.56;5032827;28;20390;-67
2023/09/01 01:41:31;;;;;;;3.10;3.00;;;18.90;99.90;;;19.38;81.26;100990.38;5050255;28;20044;-67
2023/09/01 01:44:01;;;;;;;2.95;2.85;;;18.90;99.90;;;19.36;81.64;101002.97;5041406;28;20077;-67
2023/09/01 01:46:30;;;;;;;3.40;3.30;;;18.90;99.90;;;19.07;82.96;100987.06;5041616;28;20348;-68
2023/09/01 01:48:58;;;;;;;3.03;2.92;;;18.70;99.90;;;18.67;84.23;100990.34;5049530;28;20049;-68
2023/09/01 01:51:27;;;;;;;3.70;3.50;;;18.30;99.90;;;18.60;84.71;100988.81;5032980;28;20131;-68
2023/09/01 01:53:57;;;;;;;3.15;3.05;;;18.20;99.90;;;18.42;85.99;100981.38;5033448;28;20394;-68
2023/09/01 01:56:27;;;;;;;2.92;2.83;;;18.00;99.90;;;18.57;85.74;100979.06;5032061;28;20359;-67
2023/09/01 01:58:55;;;;;;;2.80;2.70;;;18.10;99.90;;;18.59;85.39;100973.66;5045554;28;20053;-67
2023/09/01 02:01:25;;;;;;;3.47;3.38;;;18.20;99.90;;;18.16;86.88;100984.06;5033735;28;20065;-69
2023/09/01 02:03:54;;;;;;;4.10;3.85;;;17.90;99.90;;;17.76;89.02;100977.38;5033392;28;20057;-68
2023/09/01 02:06:22;;;;;;;3.85;3.65;;;17.40;99.90;;;17.74;90.35;100992.59;5033255;28;20073;-68
2023/09/01 02:08:50;;;;;;;3.03;2.92;;;17.30;99.90;;;17.69;91.66;100990.97;5032009;28;20045;-67
2023/09/01 02:11:20;;;;;;;3.97;3.78;;;17.20;99.90;;;17.69;91.28;100986.47;5033117;28;20049;-68
2023/09/01 02:13:48;;;;;;;4.00;3.80;;;17.20;99.90;;;17.57;91.80;100988.69;5033075;28;20053;-68
2023/09/01 02:16:17;;;;;;;3.42;3.33;;;17.10;99.90;;;17.66;92.08;100985.72;5033240;28;20099;-68
2023/09/01 02:18:45;;;;;;;3.35;3.25;;;17.10;99.90;;;17.68;91.98;100981.19;5033146;28;20399;-67
2023/09/01 02:21:19;;;;;;;3.38;3.13;;;17.20;99.90;;;17.73;91.77;100979.25;5032070;28;20128;-67
2023/09/01 02:23:48;;;;;;;3.15;3.05;;;17.20;99.90;;;16.81;92.68;100862.66;5044348;28;20442;-67
2023/09/01 02:26:21;;;;;;;3.00;2.90;;;17.10;99.90;;;17.30;93.85;100962.75;5036657;28;20041;-67
2023/09/01 02:28:51;;;;;;;4.15;3.85;;;17.00;99.90;;;17.35;95.00;100984.88;5049782;28;20056;-67
2023/09/01 02:31:19;;;;;;;3.78;3.58;;;16.90;99.90;;;17.28;95.12;100976.19;5040790;28;20049;-67
2023/09/01 02:33:47;;;;;;;3.55;3.35;;;16.80;99.90;;;17.23;95.45;100970.06;5040657;28;20076;-67
2023/09/01 02:36:26;;;;;;;12.98;3.60;;;16.80;99.90;;;17.00;96.38;100962.75;5047982;28;20481;-67
2023/09/01 02:38:55;;;;;;;3.55;3.35;;;16.70;99.90;;;17.02;96.91;100960.91;5033615;28;20434;-67
2023/09/01 02:41:26;;;;;;;3.70;3.50;;;16.60;99.90;;;17.17;96.35;100964.06;5042345;28;20115;-67
2023/09/01 02:43:55;;;;;;;4.07;3.72;;;16.70;99.90;;;17.03;97.34;100957.28;5037245;28;20403;-67
2023/09/01 02:46:25;;;;;;;3.93;3.73;;;16.60;99.90;;;17.07;96.80;100968.78;5032685;28;20049;-67
2023/09/01 02:48:53;;;;;;;3.50;3.30;;;16.60;99.90;;;17.31;96.65;100967.16;5044181;28;20292;-67
2023/09/01 02:51:22;;;;;;;3.20;3.10;;;16.80;99.90;;;17.17;96.53;100958.72;5042521;28;20045;-67
2023/09/01 02:53:51;;;;;;;3.67;3.53;;;16.80;99.90;;;17.22;96.97;100962.09;5037127;28;20501;-67
2023/09/01 02:56:19;;;;;;;3.78;3.60;;;16.80;99.90;;;17.20;96.97;100958.59;5048345;28;20064;-68
2023/09/01 02:58:50;;;;;;;3.30;3.20;;;16.80;99.90;;;17.34;97.41;100965.31;5047494;28;20156;-68
2023/09/01 03:01:18;;;;;;;3.40;3.23;;;16.80;99.90;;;17.26;97.06;100966.44;5043223;28;20548;-67
2023/09/01 03:03:47;;;;;;;3.38;3.28;;;16.80;99.90;;;16.95;98.04;100959.34;5035564;28;20048;-67
2023/09/01 03:06:16;;;;;;;3.83;3.65;;;16.60;99.90;;;16.95;99.00;100959.34;5047727;28;20056;-67
2023/09/01 03:08:44;;;;;;;3.90;3.70;;;16.50;99.90;;;17.02;99.67;100968.91;5031259;28;20668;-68
2023/09/01 03:11:13;;;;;;;4.45;4.25;;;16.60;99.90;;;16.85;99.58;100973.88;5043959;28;20052;-67
2023/09/01 03:13:42;;;;;;;7.85;4.07;;;16.40;99.90;;;16.75;100.00;100950.13;5034942;28;20048;-69
2023/09/01 03:16:13;;;;;;;3.58;3.38;;;16.40;99.90;;;16.93;100.00;100965.63;5031904;28;20462;-67
2023/09/01 03:18:41;;;;;;;5.45;3.63;;;16.40;99.90;;;16.79;100.00;100963.38;5030961;28;20042;-68
2023/09/01 03:21:11;;;;;;;4.00;3.70;;;16.40;99.90;;;16.81;100.00;100961.53;5030976;28;20049;-68
2023/09/01 03:23:41;;;;;;;9.52;4.05;;;16.40;99.90;;;16.81;100.00;100961.53;5047157;28;20037;-67
2023/09/01 03:26:10;;;;;;;3.83;3.67;;;16.40;99.90;;;16.91;100.00;100948.78;5047262;28;20045;-67
2023/09/01 03:28:40;;;;;;;4.28;3.97;;;16.40;99.90;;;16.88;100.00;100956.84;5041062;28;20037;-67
2023/09/01 03:31:10;;;;;;;;;;;16.50;99.90;;;17.00;100.00;100953.84;5038026;28;20053;-67
2023/09/01 03:33:42;;;;;;;3.38;3.22;;;16.60;99.90;;;17.03;100.00;100957.28;5032905;28;19924;-67
2023/09/01 03:36:12;;;;;;;3.92;3.72;;;16.60;99.90;;;16.31;100.00;100841.88;5044404;28;20081;-67
2023/09/01 03:38:41;;;;;;;3.40;3.30;;;16.60;99.90;;;16.90;100.00;100945.22;5042888;28;20045;-68
2023/09/01 03:41:09;;;;;;;3.05;2.95;;;16.50;99.90;;;17.14;100.00;100954.31;5035953;28;20056;-68
2023/09/01 03:43:38;;;;;;;4.28;4.07;;;16.60;99.90;;;17.17;100.00;100960.44;5050042;28;20080;-68
2023/09/01 03:46:06;;;;;;;3.17;3.08;;;16.70;99.90;;;17.29;100.00;100969.88;5045112;28;20128;-68
2023/09/01 03:48:35;;;;;;;4.03;3.75;;;16.80;99.90;;;17.14;100.00;100963.22;5043457;28;20064;-67
2023/09/01 03:51:10;;;;;;;3.03;2.92;;;16.80;99.90;;;17.14;100.00;100940.94;5035211;28;20483;-68
2023/09/01 03:53:40;;;;;;;3.03;2.92;;;16.80;99.90;;;17.17;100.00;100950.69;5031247;28;20493;-67
2023/09/01 03:56:10;;;;;;;3.45;3.35;;;16.90;99.90;;;17.07;100.00;100950.09;5031535;28;20103;-67
2023/09/01 03:58:39;;;;;;;3.70;3.53;;;16.70;99.90;;;17.17;100.00;100950.69;5047128;28;20052;-67
2023/09/01 04:01:11;;;;;;;3.10;3.00;;;16.70;99.90;;;17.19;100.00;100946.16;5039405;28;20129;-67
2023/09/01 04:03:43;;;;;;;3.25;3.15;;;16.90;99.90;;;17.38;100.00;100952.72;5050474;28;20052;-67
2023/09/01 04:06:13;;;;;;;2.72;2.63;;;16.90;99.90;;;17.17;100.00;100957.78;5034682;28;20046;-67
2023/09/01 04:08:42;;;;;;;4.30;4.00;;;16.80;99.90;;;17.06;100.00;100948.31;5054700;28;20041;-67
2023/09/01 04:11:10;;;;;;;4.10;3.70;;;16.60;99.90;;;16.91;100.00;100944.31;5038480;28;20049;-67
2023/09/01 04:13:39;;;;;;;3.88;3.67;;;16.50;99.90;;;16.93;100.00;100946.94;5047794;28;20060;-67
2023/09/01 04:16:07;;;;;;;4.70;4.32;;;16.50;99.90;;;16.97;100.00;100949.47;5045683;28;20098;-68
2023/09/01 04:18:36;;;;;;;3.10;3.00;;;16.50;99.90;;;17.07;100.00;100956.28;5039316;28;20123;-67
2023/09/01 04:21:04;;;;;;;3.25;3.15;;;16.60;99.90;;;17.01;100.00;100951.13;5036211;28;20119;-67
2023/09/01 04:23:39;;;;;;;3.63;3.42;;;16.60;99.90;;;16.97;100.00;100945.94;5047288;28;20049;-67
2023/09/01 04:26:08;;;;;;;3.10;3.00;;;16.50;99.90;;;17.07;100.00;100942.06;5045812;28;20048;-67
2023/09/01 04:28:37;;;;;;;3.80;3.60;;;16.60;99.90;;;17.17;100.00;100950.69;5038885;28;20046;-67
2023/09/01 04:31:15;;;;;;;3.78;3.58;;;16.70;99.90;;;17.22;100.00;100946.06;5039152;28;20044;-68
2023/09/01 04:33:46;;;;;;;3.17;3.08;;;16.80;99.90;;;17.23;100.00;100946.00;5043294;28;20454;-68
2023/09/01 04:36:15;;;;;;;4.00;3.80;;;16.80;99.90;;;17.29;100.00;100953.84;5049789;28;20053;-68
2023/09/01 04:38:44;;;;;;;4.22;4.03;;;16.90;99.90;;;17.20;100.00;100953.25;5051484;28;20041;-68
2023/09/01 04:41:13;;;;;;;3.63;3.53;;;16.80;99.90;;;17.01;100.00;100948.44;5050008;28;20103;-67
2023/09/01 04:43:42;;;;;;;4.93;4.63;;;16.60;99.90;;;17.05;100.00;100954.59;5053412;28;20041;-67
2023/09/01 04:46:10;;;;;;;3.50;3.40;;;16.60;99.90;;;17.03;100.00;100946.59;5040294;28;20085;-67
2023/09/01 04:48:39;;;;;;;3.20;3.10;;;16.60;99.90;;;17.24;100.00;100957.59;5052828;28;20538;-68
2023/09/01 04:51:08;;;;;;;5.30;4.43;;;16.70;99.90;;;17.31;100.00;100957.34;5046726;28;20111;-67
2023/09/01 04:53:36;;;;;;;3.40;3.28;;;16.90;99.90;;;17.41;100.00;100956.16;5049884;28;20053;-67
2023/09/01 04:56:06;;;;;;;3.88;3.67;;;16.90;99.90;;;17.60;100.00;100961.81;5053278;28;20075;-68
2023/09/01 04:58:34;;;;;;;3.35;3.25;;;17.20;99.90;;;17.70;99.44;100952.59;5036911;28;20056;-68
2023/09/01 05:01:03;;;;;;;3.33;3.20;;;17.30;99.90;;;17.51;100.00;100943.41;5046107;28;20061;-67
2023/09/01 05:03:33;;;;;;;3.15;3.05;;;17.10;99.90;;;17.41;100.00;100944.56;5033424;28;20051;-67
2023/09/01 05:06:01;;;;;;;3.22;3.13;;;17.10;99.90;;;17.50;100.00;100947.03;5053324;28;20049;-67
2023/09/01 05:08:30;;;;;;;3.10;3.00;;;17.10;99.90;;;17.71;100.00;100946.31;5035801;28;20045;-68
2023/09/01 05:10:58;;;;;;;3.00;2.90;;;17.30;99.90;;;17.71;98.98;100933.81;5045351;28;20562;-68
2023/09/01 05:13:28;;;;;;;3.53;3.42;;;17.40;99.90;;;17.75;99.00;100956.00;5044843;28;20056;-67
2023/09/01 05:15:56;;;;;;;3.20;3.10;;;17.40;99.90;;;17.47;99.67;100955.97;5038130;28;20410;-68
2023/09/01 05:18:25;;;;;;;3.90;3.70;;;17.20;99.90;;;17.40;100.00;100965.09;5049873;28;20546;-68
2023/09/01 05:20:54;;;;;;;4.88;4.53;;;17.10;99.90;;;17.12;100.00;100941.00;5042679;28;20071;-70
2023/09/01 05:23:25;;;;;;;4.05;3.75;;;16.90;99.90;;;17.23;100.00;100961.19;5040502;28;20045;-67
2023/09/01 05:25:54;;;;;;;5.70;4.45;;;16.80;99.90;;;17.09;100.00;100958.94;5050949;28;20049;-67
2023/09/01 05:28:22;;;;;;;4.40;4.20;;;16.70;99.90;;;16.38;100.00;100848.78;5039758;28;20428;-67
2023/09/01 05:30:53;;;;;;;4.70;4.35;;;16.60;99.90;;;16.91;100.00;100949.66;5044280;28;20140;-67
2023/09/01 05:33:21;;;;;;;4.53;4.30;;;16.50;99.90;;;16.80;100.00;100950.88;5049801;28;20119;-67
2023/09/01 05:35:50;;;;;;;4.47;4.18;;;16.40;99.90;;;16.70;100.00;100952.06;5049777;28;20414;-67
2023/09/01 05:38:19;;;;;;;5.97;4.95;;;16.30;99.90;;;16.66;100.00;100950.38;5039201;28;20490;-68
2023/09/01 05:40:56;;;;;;;4.03;3.72;;;16.20;99.90;;;16.68;100.00;100952.09;5042465;28;20053;-67
2023/09/01 05:43:25;;;;;;;3.35;3.25;;;16.20;99.90;;;16.68;100.00;100953.91;5049377;28;20049;-67
2023/09/01 05:45:56;;;;;;;3.25;3.15;;;16.30;99.90;;;16.86;100.00;100951.56;5049168;28;20483;-67
2023/09/01 05:48:26;;;;;;;3.40;3.30;;;16.40;99.90;;;16.99;100.00;100960.13;5049002;28;20402;-68
2023/09/01 05:50:55;;;;;;;4.43;4.13;;;16.60;99.90;;;17.00;100.00;100977.91;5052180;28;20049;-67
2023/09/01 05:53:24;;;;;;;8.07;4.72;;;16.60;99.90;;;16.88;100.00;100957.75;5037206;28;20391;-68
2023/09/01 05:55:52;;;;;;;3.47;3.33;;;16.50;99.90;;;17.02;100.00;100968.91;5048896;28;20107;-67
2023/09/01 05:58:21;;;;;;;3.60;3.50;;;16.60;99.90;;;17.03;100.00;100964.47;5048576;28;20053;-67
2023/09/01 06:00:50;;;;;;;3.50;3.40;;;16.60;99.90;;;17.12;100.00;100957.03;5045266;28;20112;-67
2023/09/01 06:03:19;;;;;;;3.50;3.40;;;16.70;99.90;;;17.40;100.00;100956.22;5036131;28;20128;-67
2023/09/01 06:05:48;;;;;;;3.00;2.90;;;16.90;99.90;;;17.34;100.00;100967.09;5046912;28;20083;-67
2023/09/01 06:08:16;;;;;;;3.55;3.42;;;17.00;99.90;;;17.52;100.00;100963.84;5048610;28;20128;-67
2023/09/01 06:10:45;;;;;;;3.90;3.70;;;17.10;99.90;;;17.32;100.00;100976.97;5051737;28;20076;-67
2023/09/01 06:13:13;;;;;;;4.15;3.95;;;17.00;99.90;;;17.15;100.00;100969.41;5037176;28;20095;-68
2023/09/01 06:15:41;;;;;;;3.45;3.35;;;16.80;99.90;;;17.38;100.00;100974.09;5047810;28;20078;-67
2023/09/01 06:18:10;;;;;;;3.55;3.35;;;16.90;99.90;;;17.34;100.00;100973.31;5041938;28;20045;-67
2023/09/01 06:20:39;;;;;;;4.05;3.85;;;17.00;99.90;;;17.51;100.00;100968.34;5039250;28;20050;-68
2023/09/01 06:23:08;;;;;;;3.47;3.37;;;17.10;99.90;;;17.55;100.00;100970.00;5048774;28;20048;-67
2023/09/01 06:25:36;;;;;;;3.00;2.90;;;17.10;99.90;;;17.65;100.00;100982.16;5038309;28;20068;-67
2023/09/01 06:28:05;;;;;;;3.60;3.47;;;17.20;99.90;;;17.59;100.00;100978.81;5042316;28;20055;-67
2023/09/01 06:30:33;;;;;;;4.43;4.22;;;17.20;99.90;;;17.52;100.00;100982.59;5046585;28;20072;-67
2023/09/01 06:33:02;;;;;;;3.38;3.28;;;17.10;99.90;;;17.48;100.00;100978.25;5035190;28;20068;-67
2023/09/01 06:35:30;;;;;;;3.03;2.92;;;17.10;99.90;;;17.72;100.00;100975.72;5046489;28;20064;-67
2023/09/01 06:38:01;;;;;;;4.25;4.05;;;17.30;99.90;;;17.50;100.00;100982.63;5042480;28;20494;-68
2023/09/01 06:40:29;;;;;;;5.35;5.05;;;17.20;99.90;;;17.61;100.00;100990.34;5038015;28;20044;-71
2023/09/01 06:42:57;;;;;;;3.42;3.33;;;17.20;99.90;;;17.54;100.00;100986.97;5048636;28;20037;-68
2023/09/01 06:45:26;;;;;;;3.53;3.42;;;17.20;99.90;;;17.70;100.00;100987.38;5039194;28;20076;-68
2023/09/01 06:47:56;;;;;;;3.53;3.38;;;17.30;99.90;;;17.68;100.00;100995.44;5041710;28;20088;-68
2023/09/01 06:50:25;;;;;;;3.55;3.45;;;17.30;99.90;;;17.63;100.00;100989.38;5047966;28;20072;-70
2023/09/01 06:52:53;;;;;;;3.13;3.03;;;17.20;99.90;;;17.64;100.00;100991.13;5047508;28;20045;-67
2023/09/01 06:55:23;;;;;;;4.32;4.00;;;17.30;99.90;;;17.72;100.00;100990.88;5039024;28;20052;-68
2023/09/01 06:57:52;;;;;;;3.40;3.30;;;17.40;99.90;;;17.50;100.00;100992.50;5040282;28;20053;-67
2023/09/01 07:00:20;;;;;;;4.10;3.83;;;17.10;99.90;;;17.56;100.00;100986.91;5048174;28;20140;-67
2023/09/01 07:02:49;;;;;;;4.68;4.28;;;17.20;99.90;;;17.36;100.00;100992.88;5035367;28;20041;-68
2023/09/01 07:05:17;;;;;;;3.30;3.20;;;17.00;99.90;;;17.50;100.00;100984.47;5044075;28;20045;-68
2023/09/01 07:07:46;;;;;;;6.03;5.03;;;17.20;99.90;;;17.46;100.00;100986.28;5043769;28;20106;-69
2023/09/01 07:10:15;;;;;;;6.10;5.65;;;17.10;99.90;;;17.39;100.00;100978.50;5035659;28;20103;-69
2023/09/01 07:12:45;;;;;;;10.00;4.25;;;17.00;99.90;;;17.34;100.00;100980.47;5034794;28;20111;-67
2023/09/01 07:15:14;;;;;;;3.50;3.40;;;16.90;99.90;;;16.89;100.00;100887.38;5043254;28;20084;-67
2023/09/01 07:17:44;;;;;;;4.32;4.13;;;17.00;99.90;;;17.76;100.00;100984.50;5044733;28;20079;-66
2023/09/01 07:20:13;;;;;;;3.45;3.35;;;17.30;99.90;;;17.52;100.00;100975.44;5034651;28;20049;-68
2023/09/01 07:22:42;;;;;;;3.78;3.58;;;17.20;99.90;;;17.69;100.00;100977.59;5046623;28;20128;-70
2023/09/01 07:25:13;;;;;;;3.03;2.92;;;17.30;99.90;;;17.73;100.00;100971.25;5041585;28;20037;-70
2023/09/01 07:27:41;;;;;;;4.20;4.00;;;17.40;99.90;;;17.86;100.00;100978.81;5036485;28;20430;-70
2023/09/01 07:30:13;;;;;;;3.70;3.50;;;17.50;99.90;;;17.71;100.00;100967.72;5048133;28;20075;-71
2023/09/01 07:32:42;;;;;;;3.65;3.45;;;17.40;99.90;;;17.46;100.00;100980.94;5043320;28;20048;-69
2023/09/01 07:35:12;;;;;;;2.90;2.80;;;17.20;99.90;;;17.86;100.00;100978.81;5046576;28;20068;-69
2023/09/01 07:37:40;;;;;;;3.55;3.35;;;17.50;99.90;;;17.81;100.00;100979.88;5053073;28;20086;-66
2023/09/01 07:40:09;;;;;;;3.92;3.72;;;17.50;99.90;;;17.80;100.00;100987.03;5042096;28;20053;-74
2023/09/01 07:42:38;;;;;;;4.10;3.85;;;17.50;99.90;;;17.55;100.00;100978.03;5051617;28;20099;-72
2023/09/01 07:45:07;;;;;;;3.90;3.70;;;17.30;99.90;;;17.52;100.00;100977.22;5049297;28;20044;-68
2023/09/01 07:47:37;;;;;;;3.80;3.60;;;17.20;99.90;;;17.40;100.00;100983.81;5042940;28;20069;-67
2023/09/01 07:50:07;;;;;;;6.03;4.30;;;17.10;99.90;;;17.30;100.00;100981.47;5054942;28;20048;-67
2023/09/01 07:52:36;;;;;;;4.00;3.80;;;16.90;99.90;;;17.38;100.00;100977.63;5046445;28;20056;-69
2023/09/01 07:55:05;;;;;;;5.60;5.10;;;17.00;99.90;;;17.27;100.00;100979.75;5046994;28;20052;-67
2023/09/01 07:57:34;;;;;;;5.90;5.30;;;16.90;99.90;;;17.24;100.00;100987.00;5055058;28;20053;-76
2023/09/01 08:00:05;;;;;;;3.75;3.55;;;16.90;99.90;;;17.27;100.00;100976.19;5042367;28;20044;-73
2023/09/01 08:02:41;;;;;;;3.42;3.33;;;16.90;99.90;;;17.21;100.00;100974.59;5048675;28;20103;-68
2023/09/01 08:05:10;;;;;;;19.95;4.03;;;16.80;99.90;;;17.29;100.00;100979.69;5052847;28;20433;-72
2023/09/01 08:07:39;;;;;;;4.35;4.15;;;16.90;99.90;;;17.34;100.00;100986.69;5041801;28;20114;-71
2023/09/01 08:10:10;;;;;;;5.35;5.00;;;16.90;99.90;;;17.36;100.00;100979.50;5052154;28;20049;-72
2023/09/01 08:12:38;;;;;;;7.82;5.90;;;17.00;99.90;;;17.21;100.00;100982.59;5048547;28;20051;-74
2023/09/01 08:15:10;;;;;;;4.22;3.92;;;16.80;99.90;;;17.23;100.00;100987.94;5042947;28;20099;-68
2023/09/01 08:17:38;;;;;;;5.63;5.13;;;16.80;99.90;;;17.14;100.00;100989.94;5056800;28;20068;-70
2023/09/01 08:20:10;;;;;;;4.60;4.30;;;16.80;99.90;;;17.07;100.00;100966.97;5049837;28;20059;-70
2023/09/01 08:22:41;;;;;;;5.18;4.88;;;16.80;99.90;;;17.27;100.00;100997.59;5036781;28;20049;-72
2023/09/01 08:25:10;;;;;;;3.85;3.65;;;16.80;99.90;;;17.53;100.00;100995.06;5054498;28;20146;-75
2023/09/01 08:27:39;;;;;;;3.53;3.38;;;17.10;99.90;;;17.43;100.00;100999.78;5042938;28;20293;-72
2023/09/01 08:30:09;;;;;;;4.47;4.18;;;17.10;99.90;;;17.68;100.00;101000.81;5050049;28;20045;-72
2023/09/01 08:32:40;;;;;;;4.60;4.35;;;17.30;99.90;;;17.39;100.00;100995.44;5051072;28;20053;-73
2023/09/01 08:35:11;;;;;;;8.02;4.10;;;17.10;99.90;;;17.44;100.00;100988.13;5041664;28;20056;-74
2023/09/01 08:37:39;;;;;;;;;;;17.00;99.90;;;17.37;100.00;100989.25;5052559;28;20099;-72
2023/09/01 08:40:10;;;;;;;4.25;4.00;;;17.00;99.90;;;17.33;100.00;100973.34;5047418;28;19943;-74
2023/09/01 08:42:45;;;;;;;;;;;17.10;99.90;;;17.51;100.00;101015.63;5042153;28;20050;-73
2023/09/01 08:45:14;;;;;;;3.92;3.72;;;17.10;99.90;;;17.60;100.00;100991.25;5051111;28;19921;-73
2023/09/01 08:47:45;;;;;;;3.50;3.30;;;17.30;99.90;;;17.65;100.00;101005.38;5042327;28;20056;-73
2023/09/01 08:50:18;;;;;;;4.63;4.30;;;17.30;99.90;;;17.71;100.00;101002.53;5041813;28;20123;-72
2023/09/01 08:52:48;;;;;;;4.07;3.88;;;17.40;99.90;;;17.59;100.00;101016.25;5050928;28;20143;-71
2023/09/01 08:55:18;;;;;;;;;;;17.30;99.90;;;17.80;100.00;101016.47;5039271;28;20053;-72
2023/09/01 08:57:48;;;;;;;5.53;5.10;;;17.40;99.90;;;17.74;100.00;101005.97;5045753;28;19963;-72
2023/09/01 09:00:17;;;;;;;4.88;4.55;;;17.50;99.90;;;17.92;100.00;101026.78;5047924;28;20055;-76
2023/09/01 09:02:47;;;;;;;3.25;3.15;;;17.50;99.90;;;18.04;100.00;101025.50;5036513;28;20395;-71
2023/09/01 09:05:23;;;;;;;4.47;4.28;;;17.70;99.90;;;17.97;100.00;101027.53;5047840;28;20045;-73
2023/09/01 09:08:03;;;;;;;4.85;4.55;;;17.70;99.90;;;17.67;100.00;101030.28;5044914;28;20520;-74
2023/09/01 09:10:37;;;;;;;3.35;3.25;;;17.40;99.90;;;17.69;100.00;101031.97;5037998;28;20069;-74
2023/09/01 09:13:22;;;;;;;4.18;3.88;;;17.30;99.90;;;17.81;100.00;101018.22;5048084;28;20088;-74
2023/09/01 09:16:08;;;;;;;4.95;4.38;;;17.40;99.90;;;17.71;100.00;101015.91;5046146;28;20182;-76
2023/09/01 09:18:37;;;;;;;4.20;4.00;;;17.40;99.90;;;17.74;100.00;101016.66;5037507;28;20033;-72
2023/09/01 09:21:24;;;;;;;4.85;4.55;;;17.40;99.90;;;17.54;100.00;101015.50;5047485;28;20041;-75
2023/09/01 09:23:54;;;;;;;5.57;5.18;;;17.20;99.90;;;17.45;100.00;101010.41;5046319;28;20055;-74
2023/09/01 09:26:42;;;;;;;4.55;4.35;;;17.10;99.90;;;17.57;100.00;101007.41;5036490;28;20053;-76
2023/09/01 09:29:15;;;;;;;7.43;3.78;;;17.20;99.90;;;17.72;100.00;101010.50;5045640;28;20053;-75
2023/09/01 09:31:44;;;;;;;4.43;4.00;;;17.30;99.90;;;17.54;100.00;101007.47;5046240;28;20048;-77
2023/09/01 09:34:18;;;;;;;4.17;3.97;;;17.20;99.90;;;17.73;100.00;101028.28;5037260;28;20538;-76
2023/09/01 09:36:49;;;;;;;3.20;3.10;;;17.40;99.90;;;17.77;100.00;101034.41;5048070;28;20049;-73
2023/09/01 09:39:22;;;;;;;3.38;3.20;;;17.40;99.90;;;18.05;100.00;101056.72;5049012;28;20059;-77
2023/09/01 09:41:51;;;;;;;4.88;4.45;;;17.70;99.90;;;17.96;100.00;101049.00;5048041;28;20049;-75
2023/09/01 09:44:29;;;;;;;10.07;5.75;;;17.70;99.90;;;17.53;100.00;101044.09;5037106;28;20091;-76
2023/09/01 09:46:58;;;;;;;5.85;5.28;;;17.30;99.90;;;17.61;100.00;101039.38;5045446;28;20052;-77
2023/09/01 09:49:31;;;;;;;5.40;5.00;;;17.30;99.90;;;17.61;100.00;101051.88;5046169;28;20102;-75
2023/09/01 09:52:03;;;;;;;5.57;5.20;;;17.20;99.90;;;17.78;100.00;101060.25;5036124;28;20046;-74
2023/09/01 09:54:34;;;;;;;4.18;3.97;;;17.40;99.90;;;17.69;100.00;101050.69;5047397;28;20064;-74
2023/09/01 09:57:07;;;;;;;4.30;4.07;;;17.30;99.90;;;17.90;100.00;101068.75;5043856;28;20053;-74
2023/09/01 09:59:44;;;;;;;5.80;5.30;;;17.50;99.90;;;17.51;100.00;101056.63;5039095;28;20053;-75
2023/09/01 10:02:23;;;;;;;5.10;4.70;;;17.20;99.90;;;17.67;100.00;101070.41;5037052;28;20051;-76
2023/09/01 10:04:54;;;;;;;7.30;6.20;;;17.20;99.90;;;17.52;100.00;101069.06;5043959;28;20071;-76
2023/09/01 10:07:25;;;;;;;4.15;3.95;;;17.10;99.90;;;17.62;100.00;101069.66;5047218;28;20067;-76
2023/09/01 10:09:53;;;;;;;;;;;17.20;99.90;;;17.82;100.00;101084.22;5036123;28;20045;-76
2023/09/01 10:12:22;;;;;;;7.70;5.18;;;17.30;99.90;;;17.88;100.00;101072.44;5046636;28;20016;-74
2023/09/01 10:14:54;;;;;;;5.15;4.70;;;17.50;99.90;;;17.78;100.00;101081.66;5043361;28;20075;-78
2023/09/01 10:17:22;;;;;;;;;;;17.40;99.90;;;17.90;100.00;101081.31;5038361;28;20053;-79
2023/09/01 10:19:51;;;;;;;4.72;4.38;;;17.50;99.90;;;17.85;100.00;101089.47;5049201;28;19925;-73
2023/09/01 10:22:20;;;;;;;4.57;4.28;;;17.50;99.90;;;18.04;100.00;101092.44;5040134;28;20056;-75